createdAt,value
2018-09-21T00:01:39.813Z,5.27
2018-09-21T00:04:11.920Z,5.17
2018-09-21T00:06:40.666Z,5.83
2018-09-21T00:09:10.329Z,5.37
2018-09-21T00:11:38.599Z,5.53
2018-09-21T00:14:06.930Z,5.83
2018-09-21T00:16:35.205Z,4.67
2018-09-21T00:19:03.542Z,5.20
2018-09-21T00:21:31.890Z,4.67
2018-09-21T00:24:00.321Z,6.43
2018-09-21T00:26:28.685Z,4.90
2018-09-21T00:28:57.118Z,5.00
2018-09-21T00:31:25.398Z,5.30
2018-09-21T00:33:53.706Z,5.10
2018-09-21T00:36:22.013Z,7.50
2018-09-21T00:38:50.363Z,5.40
2018-09-21T00:41:18.663Z,5.57
2018-09-21T00:43:46.985Z,5.33
2018-09-21T00:46:15.294Z,4.93
2018-09-21T00:48:43.626Z,6.23
2018-09-21T00:51:11.915Z,6.57
2018-09-21T00:53:40.237Z,5.73
2018-09-21T00:56:08.526Z,5.00
2018-09-21T00:58:36.861Z,5.83
2018-09-21T01:01:05.187Z,5.07
2018-09-21T01:03:33.467Z,7.60
2018-09-21T01:06:01.744Z,5.10
2018-09-21T01:08:30.048Z,5.20
2018-09-21T01:10:58.381Z,5.83
2018-09-21T01:13:26.669Z,5.40
2018-09-21T01:15:54.981Z,5.67
2018-09-21T01:18:23.282Z,5.43
2018-09-21T01:20:51.570Z,5.03
2018-09-21T01:23:19.861Z,6.93
2018-09-21T01:25:48.153Z,6.37
2018-09-21T01:28:16.453Z,5.13
2018-09-21T01:30:44.734Z,7.50
2018-09-21T01:33:13.092Z,5.93
2018-09-21T01:35:41.374Z,5.17
2018-09-21T01:38:09.680Z,5.77
2018-09-21T01:40:37.959Z,5.23
2018-09-21T01:43:06.281Z,6.27
2018-09-21T01:45:34.535Z,5.80
2018-09-21T01:48:02.850Z,5.53
2018-09-21T01:50:31.549Z,5.60
2018-09-21T01:52:59.765Z,5.37
2018-09-21T01:55:28.042Z,6.03
2018-09-21T01:57:56.346Z,6.10
2018-09-21T02:00:24.657Z,6.23
2018-09-21T02:02:52.906Z,7.00
2018-09-21T02:05:21.228Z,7.13
2018-09-21T02:07:49.535Z,5.60
2018-09-21T02:10:17.802Z,5.30
2018-09-21T02:12:46.065Z,6.47
2018-09-21T02:15:14.326Z,6.23
2018-09-21T02:17:42.696Z,7.43
2018-09-21T02:20:10.974Z,6.27
2018-09-21T02:22:39.274Z,6.40
2018-09-21T02:25:07.587Z,6.40
2018-09-21T02:27:35.864Z,6.63
2018-09-21T02:30:04.378Z,5.77
2018-09-21T02:32:32.647Z,6.17
2018-09-21T02:35:00.920Z,6.63
2018-09-21T02:37:29.158Z,6.13
2018-09-21T02:39:57.423Z,6.37
2018-09-21T02:42:25.712Z,7.73
2018-09-21T02:44:54.030Z,6.30
2018-09-21T02:47:22.314Z,7.97
2018-09-21T02:49:50.590Z,6.37
2018-09-21T02:52:18.861Z,6.33
2018-09-21T02:54:47.192Z,7.80
2018-09-21T02:57:15.521Z,7.03
2018-09-21T02:59:43.801Z,6.43
2018-09-21T03:02:12.101Z,8.17
2018-09-21T03:04:45.590Z,7.40
2018-09-21T03:07:13.897Z,6.57
2018-09-21T03:09:42.166Z,6.07
2018-09-21T03:12:10.433Z,6.07
2018-09-21T03:14:38.770Z,6.33
2018-09-21T03:17:07.114Z,6.17
2018-09-21T03:19:35.435Z,6.40
2018-09-21T03:22:03.730Z,6.20
2018-09-21T03:24:31.966Z,7.63
2018-09-21T03:27:00.266Z,6.87
2018-09-21T03:29:28.555Z,9.37
2018-09-21T03:31:56.826Z,6.40
2018-09-21T03:34:25.174Z,6.60
2018-09-21T03:36:53.542Z,6.90
2018-09-21T03:39:21.960Z,7.80
2018-09-21T03:41:50.227Z,7.40
2018-09-21T03:44:18.924Z,7.13
2018-09-21T03:46:47.203Z,9.50
2018-09-21T03:49:15.477Z,12.13
2018-09-21T03:51:43.814Z,7.30
2018-09-21T03:54:12.061Z,8.23
2018-09-21T03:56:40.367Z,6.30
2018-09-21T03:59:08.908Z,6.97
2018-09-21T04:01:37.187Z,13.00
2018-09-21T04:04:05.486Z,7.00
2018-09-21T04:06:33.789Z,9.30
2018-09-21T04:09:02.068Z,6.50
2018-09-21T04:11:30.334Z,8.77
2018-09-21T04:13:58.623Z,6.43
2018-09-21T04:16:26.910Z,7.93
2018-09-21T04:18:55.286Z,6.60
2018-09-21T04:21:23.602Z,10.43
2018-09-21T04:23:51.872Z,7.00
2018-09-21T04:26:20.136Z,6.80
2018-09-21T04:28:48.382Z,8.27
2018-09-21T04:31:16.807Z,6.37
2018-09-21T04:33:45.102Z,6.50
2018-09-21T04:36:13.394Z,7.70
2018-09-21T04:38:41.665Z,8.13
2018-09-21T04:41:09.928Z,7.77
2018-09-21T04:43:38.194Z,6.87
2018-09-21T04:46:06.474Z,7.43
2018-09-21T04:48:34.757Z,7.10
2018-09-21T04:51:03.057Z,6.40
2018-09-21T04:53:31.345Z,7.67
2018-09-21T04:55:59.641Z,6.60
2018-09-21T04:58:29.028Z,7.17
2018-09-21T05:00:57.799Z,7.67
2018-09-21T05:03:26.199Z,8.33
2018-09-21T05:05:54.830Z,7.73
2018-09-21T05:08:23.249Z,6.50
2018-09-21T05:10:51.841Z,10.13
2018-09-21T05:13:20.128Z,9.00
2018-09-21T05:15:48.389Z,6.97
2018-09-21T05:18:16.727Z,7.50
2018-09-21T05:20:45.142Z,9.47
2018-09-21T05:23:13.456Z,6.73
2018-09-21T05:25:41.759Z,9.00
2018-09-21T05:28:10.030Z,8.20
2018-09-21T05:30:38.358Z,7.27
2018-09-21T05:33:06.634Z,11.03
2018-09-21T05:35:34.926Z,8.87
2018-09-21T05:38:03.206Z,6.80
2018-09-21T05:40:31.513Z,7.23
2018-09-21T05:42:59.807Z,6.67
2018-09-21T05:45:28.103Z,6.33
2018-09-21T05:47:56.398Z,7.07
2018-09-21T05:50:24.665Z,7.47
2018-09-21T05:52:52.946Z,8.63
2018-09-21T05:55:21.201Z,7.77
2018-09-21T05:57:49.506Z,8.03
2018-09-21T06:00:18.098Z,10.37
2018-09-21T06:02:46.598Z,7.03
2018-09-21T06:05:14.866Z,6.30
2018-09-21T06:07:43.223Z,6.67
2018-09-21T06:10:11.676Z,13.23
2018-09-21T06:12:39.705Z,11.60
2018-09-21T06:15:09.068Z,10.40
2018-09-21T06:17:37.342Z,9.03
2018-09-21T06:20:12.037Z,9.33
2018-09-21T06:22:44.849Z,11.07
2018-09-21T06:25:02.888Z,7.83
2018-09-21T06:27:31.225Z,9.20
2018-09-21T06:29:59.487Z,6.63
2018-09-21T06:32:27.861Z,8.83
2018-09-21T06:34:56.179Z,8.40
2018-09-21T06:37:24.460Z,12.70
2018-09-21T06:39:52.728Z,11.07
2018-09-21T06:42:20.998Z,8.67
2018-09-21T06:44:49.306Z,8.23
2018-09-21T06:47:17.718Z,9.73
2018-09-21T06:49:46.009Z,11.00
2018-09-21T06:52:14.250Z,10.40
2018-09-21T06:54:42.565Z,11.97
2018-09-21T06:57:10.815Z,8.43
2018-09-21T06:59:39.089Z,8.80
2018-09-21T07:02:08.347Z,7.10
2018-09-21T07:04:36.642Z,7.83
2018-09-21T07:07:04.934Z,7.73
2018-09-21T07:09:33.198Z,9.57
2018-09-21T07:12:01.549Z,11.33
2018-09-21T07:14:29.825Z,8.53
2018-09-21T07:16:58.187Z,7.97
2018-09-21T07:19:27.310Z,8.70
2018-09-21T07:21:55.633Z,7.23
2018-09-21T07:24:23.929Z,7.80
2018-09-21T07:26:52.206Z,6.53
2018-09-21T07:29:20.459Z,8.23
2018-09-21T07:31:48.764Z,7.63
2018-09-21T07:34:17.036Z,7.63
2018-09-21T07:36:45.317Z,8.07
2018-09-21T07:39:13.626Z,7.83
2018-09-21T07:41:41.929Z,7.27
2018-09-21T07:44:10.250Z,8.17
2018-09-21T07:46:38.517Z,6.20
2018-09-21T07:49:06.845Z,6.77
2018-09-21T07:51:35.070Z,9.50
2018-09-21T07:54:03.355Z,7.07
2018-09-21T07:56:31.613Z,8.00
2018-09-21T07:58:59.902Z,8.07
2018-09-21T08:01:28.193Z,6.83
2018-09-21T08:03:56.485Z,9.00
2018-09-21T08:06:24.813Z,8.60
2018-09-21T08:08:53.114Z,9.67
2018-09-21T08:11:21.396Z,9.93
2018-09-21T08:13:49.732Z,12.17
2018-09-21T08:16:18.009Z,8.10
2018-09-21T08:18:46.418Z,10.10
2018-09-21T08:21:14.720Z,8.10
2018-09-21T08:23:42.998Z,8.47
2018-09-21T08:26:11.301Z,7.50
2018-09-21T08:28:39.606Z,6.93
2018-09-21T08:31:07.877Z,8.70
2018-09-21T08:33:36.153Z,8.77
2018-09-21T08:36:04.405Z,8.47
2018-09-21T08:38:32.687Z,6.27
2018-09-21T08:41:00.982Z,6.90
2018-09-21T08:43:29.288Z,9.87
2018-09-21T08:45:57.561Z,7.27
2018-09-21T08:48:25.820Z,9.50
2018-09-21T08:50:54.159Z,9.73
2018-09-21T08:53:22.459Z,9.17
2018-09-21T08:55:50.735Z,8.53
2018-09-21T08:58:19.105Z,7.07
2018-09-21T09:00:47.414Z,7.47
2018-09-21T09:03:15.780Z,7.57
2018-09-21T09:05:48.262Z,7.93
2018-09-21T09:08:16.554Z,7.87
2018-09-21T09:10:44.861Z,8.93
2018-09-21T09:13:13.118Z,7.43
2018-09-21T09:15:41.430Z,7.37
2018-09-21T09:18:09.727Z,7.00
2018-09-21T09:20:38.011Z,7.40
2018-09-21T09:23:06.611Z,7.93
2018-09-21T09:25:34.910Z,5.93
2018-09-21T09:28:03.189Z,6.30
2018-09-21T09:30:33.655Z,7.17
2018-09-21T09:33:01.931Z,10.77
2018-09-21T09:35:30.336Z,5.90
2018-09-21T09:37:58.617Z,8.20
2018-09-21T09:40:26.874Z,8.40
2018-09-21T09:42:55.212Z,6.60
2018-09-21T09:45:23.458Z,7.00
2018-09-21T09:47:51.957Z,6.43
2018-09-21T09:50:20.296Z,6.23
2018-09-21T09:52:48.603Z,6.50
2018-09-21T09:55:16.875Z,8.37
2018-09-21T09:57:45.152Z,6.97
2018-09-21T10:00:13.452Z,8.47
2018-09-21T10:02:41.763Z,5.43
2018-09-21T10:05:10.132Z,8.43
2018-09-21T10:07:38.405Z,8.63
2018-09-21T10:10:06.684Z,7.47
2018-09-21T10:12:34.970Z,6.90
2018-09-21T10:15:03.266Z,6.97
2018-09-21T10:17:31.553Z,6.60
2018-09-21T10:19:59.845Z,7.93
2018-09-21T10:22:28.096Z,5.93
2018-09-21T10:24:56.399Z,5.90
2018-09-21T10:27:24.743Z,6.83
2018-09-21T10:29:53.011Z,10.43
2018-09-21T10:32:21.309Z,6.73
2018-09-21T10:34:49.614Z,8.33
2018-09-21T10:37:17.889Z,9.13
2018-09-21T10:39:46.184Z,8.93
2018-09-21T10:42:14.447Z,6.07
2018-09-21T10:44:42.729Z,6.53
2018-09-21T10:47:11.046Z,5.70
2018-09-21T10:49:39.320Z,6.80
2018-09-21T10:52:07.596Z,7.27
2018-09-21T10:54:35.872Z,7.13
2018-09-21T10:57:04.249Z,10.00
2018-09-21T10:59:32.512Z,9.13
2018-09-21T11:02:00.798Z,8.07
2018-09-21T11:04:29.118Z,7.60
2018-09-21T11:06:57.906Z,5.77
2018-09-21T11:09:26.215Z,5.43
2018-09-21T11:11:54.537Z,12.10
2018-09-21T11:14:22.846Z,8.40
2018-09-21T11:16:51.110Z,7.77
2018-09-21T11:19:19.358Z,7.50
2018-09-21T11:21:47.827Z,7.53
2018-09-21T11:24:16.110Z,8.93
2018-09-21T11:26:44.405Z,6.23
2018-09-21T11:29:12.715Z,7.13
2018-09-21T11:31:40.975Z,5.97
2018-09-21T11:34:09.227Z,7.33
2018-09-21T11:36:37.545Z,6.07
2018-09-21T11:39:08.073Z,8.07
2018-09-21T11:41:36.324Z,8.30
2018-09-21T11:44:04.755Z,6.57
2018-09-21T11:46:33.077Z,7.40
2018-09-21T11:49:01.331Z,9.93
2018-09-21T11:51:29.607Z,8.53
2018-09-21T11:53:57.910Z,6.70
2018-09-21T11:56:26.225Z,6.80
2018-09-21T11:58:54.554Z,5.93
2018-09-21T12:01:22.827Z,8.80
2018-09-21T12:03:51.314Z,7.20
2018-09-21T12:06:19.617Z,8.30
2018-09-21T12:08:50.281Z,8.53
2018-09-21T12:11:18.570Z,8.10
2018-09-21T12:13:46.874Z,6.50
2018-09-21T12:16:15.343Z,6.17
2018-09-21T12:18:43.850Z,6.13
2018-09-21T12:21:12.100Z,6.13
2018-09-21T12:23:40.375Z,7.87
2018-09-21T12:26:08.718Z,5.80
2018-09-21T12:28:37.010Z,11.87
2018-09-21T12:31:05.512Z,6.90
2018-09-21T12:33:33.973Z,6.70
2018-09-21T12:36:02.328Z,6.70
2018-09-21T12:38:30.543Z,6.83
2018-09-21T12:40:58.875Z,7.30
2018-09-21T12:43:27.158Z,10.40
2018-09-21T12:45:55.498Z,7.03
2018-09-21T12:48:24.081Z,7.67
2018-09-21T12:50:52.416Z,7.80
2018-09-21T12:53:20.701Z,5.90
2018-09-21T12:55:50.074Z,8.20
2018-09-21T12:58:18.425Z,6.93
2018-09-21T13:00:50.623Z,6.13
2018-09-21T13:03:20.226Z,8.17
2018-09-21T13:05:52.942Z,6.00
2018-09-21T13:08:21.355Z,8.77
2018-09-21T13:10:49.831Z,9.53
2018-09-21T13:13:18.157Z,8.00
2018-09-21T13:15:46.459Z,8.40
2018-09-21T13:18:14.781Z,5.97
2018-09-21T13:20:43.273Z,6.53
2018-09-21T13:23:11.806Z,7.47
2018-09-21T13:25:40.113Z,7.00
2018-09-21T13:28:08.546Z,8.37
2018-09-21T13:30:36.836Z,6.03
2018-09-21T13:33:05.118Z,9.50
2018-09-21T13:35:33.431Z,7.63
2018-09-21T13:38:01.745Z,6.40
2018-09-21T13:40:30.011Z,7.43
2018-09-21T13:42:58.336Z,6.87
2018-09-21T13:45:26.610Z,5.70
2018-09-21T13:47:54.918Z,7.73
2018-09-21T13:50:23.696Z,7.20
2018-09-21T13:52:52.072Z,5.50
2018-09-21T13:55:20.366Z,10.67
2018-09-21T13:57:49.113Z,6.20
2018-09-21T14:00:17.460Z,6.47
2018-09-21T14:02:45.712Z,5.47
2018-09-21T14:05:14.002Z,11.47
2018-09-21T14:07:42.666Z,6.37
2018-09-21T14:10:11.366Z,8.43
2018-09-21T14:12:39.934Z,6.80
2018-09-21T14:15:08.196Z,6.23
2018-09-21T14:17:36.445Z,7.90
2018-09-21T14:20:04.930Z,5.70
2018-09-21T14:22:33.221Z,6.00
2018-09-21T14:25:01.502Z,7.30
2018-09-21T14:27:29.809Z,8.43
2018-09-21T14:29:58.090Z,11.33
2018-09-21T14:32:26.333Z,8.97
2018-09-21T14:34:54.627Z,6.00
2018-09-21T14:37:22.909Z,6.03
2018-09-21T14:39:51.181Z,6.13
2018-09-21T14:42:19.477Z,5.60
2018-09-21T14:44:47.890Z,5.90
2018-09-21T14:47:16.174Z,5.20
2018-09-21T14:49:44.445Z,5.17
2018-09-21T14:52:12.722Z,4.83
2018-09-21T14:54:41.003Z,5.33
2018-09-21T14:57:09.299Z,8.33
2018-09-21T14:59:37.542Z,5.60
2018-09-21T15:02:06.409Z,4.43
2018-09-21T15:04:34.689Z,7.10
2018-09-21T15:07:02.994Z,6.07
2018-09-21T15:09:31.307Z,5.13
2018-09-21T15:11:59.601Z,5.07
2018-09-21T15:14:27.869Z,3.83
2018-09-21T15:16:56.142Z,4.57
2018-09-21T15:19:24.468Z,3.53
2018-09-21T15:21:52.760Z,10.23
2018-09-21T15:24:21.040Z,4.90
2018-09-21T15:26:49.312Z,4.73
2018-09-21T15:29:17.570Z,4.30
2018-09-21T15:31:45.870Z,4.77
2018-09-21T15:34:14.131Z,7.87
2018-09-21T15:36:42.421Z,6.03
2018-09-21T15:39:11.939Z,7.67
2018-09-21T15:41:40.780Z,4.03
2018-09-21T15:44:09.042Z,3.53
2018-09-21T15:46:37.589Z,3.17
2018-09-21T15:49:06.106Z,4.63
2018-09-21T15:51:35.098Z,6.10
2018-09-21T15:54:03.421Z,4.00
2018-09-21T15:56:31.715Z,3.67
2018-09-21T15:59:00.256Z,6.20
2018-09-21T16:01:28.642Z,3.17
2018-09-21T16:03:58.092Z,4.50
2018-09-21T16:06:28.649Z,1.87
2018-09-21T16:08:56.941Z,2.53
2018-09-21T16:11:25.522Z,4.73
2018-09-21T16:13:54.173Z,6.23
2018-09-21T16:16:22.421Z,0.93
2018-09-21T16:18:50.777Z,0.80
2018-09-21T16:21:20.041Z,2.83
2018-09-21T16:23:48.558Z,0.93
2018-09-21T16:26:17.078Z,4.63
2018-09-21T16:28:45.430Z,1.40
2018-09-21T16:31:13.717Z,1.33
2018-09-21T16:33:42.249Z,1.80
2018-09-21T16:36:10.738Z,2.00
2018-09-21T16:38:39.345Z,0.80
2018-09-21T16:41:07.636Z,2.13
2018-09-21T16:43:35.912Z,3.40
2018-09-21T16:46:04.269Z,2.37
2018-09-21T16:48:32.659Z,1.30
2018-09-21T16:51:01.058Z,1.03
2018-09-21T16:53:29.438Z,0.90
2018-09-21T16:55:57.818Z,1.50
2018-09-21T16:58:26.163Z,1.40
2018-09-21T17:00:54.698Z,0.93
2018-09-21T17:03:23.051Z,1.87
2018-09-21T17:05:51.341Z,4.07
2018-09-21T17:08:19.808Z,4.73
2018-09-21T17:10:48.262Z,2.60
2018-09-21T17:13:16.551Z,3.87
2018-09-21T17:15:44.931Z,2.00
2018-09-21T17:18:13.258Z,1.40
2018-09-21T17:20:41.546Z,1.93
2018-09-21T17:23:09.857Z,2.80
2018-09-21T17:25:38.328Z,2.93
2018-09-21T17:28:06.929Z,2.40
2018-09-21T17:30:35.201Z,1.23
2018-09-21T17:33:03.731Z,1.20
2018-09-21T17:35:32.441Z,1.33
2018-09-21T17:38:00.763Z,1.50
2018-09-21T17:40:29.168Z,2.20
2018-09-21T17:42:57.485Z,4.00
2018-09-21T17:45:25.907Z,2.93
2018-09-21T17:47:54.253Z,1.40
2018-09-21T17:50:22.529Z,1.77
2018-09-21T17:52:50.815Z,2.40
2018-09-21T17:55:19.074Z,3.07
2018-09-21T17:57:47.601Z,1.70
2018-09-21T18:00:15.958Z,3.07
2018-09-21T18:02:44.571Z,2.47
2018-09-21T18:05:12.825Z,4.10
2018-09-21T18:07:41.139Z,2.23
2018-09-21T18:10:10.408Z,3.37
2018-09-21T18:12:38.662Z,2.97
2018-09-21T18:15:06.971Z,4.80
2018-09-21T18:17:35.241Z,3.20
2018-09-21T18:20:03.534Z,6.23
2018-09-21T18:22:31.830Z,2.43
2018-09-21T18:25:00.082Z,3.83
2018-09-21T18:27:28.396Z,3.77
2018-09-21T18:29:56.682Z,2.37
2018-09-21T18:32:24.999Z,3.10
2018-09-21T18:34:53.305Z,3.00
2018-09-21T18:37:21.585Z,2.33
2018-09-21T18:39:49.834Z,4.47
2018-09-21T18:42:18.111Z,1.77
2018-09-21T18:44:46.433Z,2.07
2018-09-21T18:47:14.645Z,1.50
2018-09-21T18:49:42.938Z,1.97
2018-09-21T18:52:11.210Z,1.37
2018-09-21T18:54:39.515Z,2.50
2018-09-21T18:57:07.750Z,3.93
2018-09-21T18:59:36.087Z,2.97
2018-09-21T19:02:04.339Z,2.47
2018-09-21T19:04:32.649Z,3.17
2018-09-21T19:07:01.646Z,1.80
2018-09-21T19:09:29.949Z,3.20
2018-09-21T19:11:58.227Z,2.60
2018-09-21T19:14:26.489Z,1.67
2018-09-21T19:16:54.790Z,3.20
2018-09-21T19:19:23.053Z,1.50
2018-09-21T19:21:51.756Z,2.63
2018-09-21T19:24:20.015Z,2.53
2018-09-21T19:26:48.297Z,2.23
2018-09-21T19:29:16.555Z,2.87
2018-09-21T19:31:44.844Z,2.47
2018-09-21T19:34:13.791Z,3.23
2018-09-21T19:36:42.053Z,1.40
2018-09-21T19:39:11.423Z,3.57
2018-09-21T19:41:40.338Z,4.20
2018-09-21T19:44:09.500Z,3.30
2018-09-21T19:46:38.178Z,1.90
2018-09-21T19:49:06.477Z,2.30
2018-09-21T19:51:34.776Z,2.10
2018-09-21T19:54:03.193Z,2.83
2018-09-21T19:56:31.473Z,1.83
2018-09-21T19:58:59.776Z,2.00
2018-09-21T20:01:28.190Z,2.97
2018-09-21T20:03:56.504Z,2.90
2018-09-21T20:06:24.791Z,1.93
2018-09-21T20:08:53.066Z,1.20
2018-09-21T20:11:21.357Z,1.50
2018-09-21T20:13:49.941Z,2.87
2018-09-21T20:16:18.438Z,3.17
2018-09-21T20:18:46.937Z,2.80
2018-09-21T20:21:15.530Z,2.70
2018-09-21T20:23:44.072Z,3.17
2018-09-21T20:26:13.202Z,4.70
2018-09-21T20:28:41.922Z,2.63
2018-09-21T20:31:15.774Z,3.40
2018-09-21T20:33:44.864Z,2.87
2018-09-21T20:36:13.366Z,1.43
2018-09-21T20:38:41.965Z,4.33
2018-09-21T20:41:10.466Z,3.17
2018-09-21T20:43:39.087Z,3.67
2018-09-21T20:46:07.633Z,2.67
2018-09-21T20:48:36.221Z,2.10
2018-09-21T20:51:04.543Z,1.37
2018-09-21T20:53:32.799Z,2.33
2018-09-21T20:56:01.091Z,1.87
2018-09-21T20:58:29.370Z,1.50
2018-09-21T21:00:57.634Z,1.40
2018-09-21T21:03:26.374Z,2.03
2018-09-21T21:05:54.642Z,3.37
2018-09-21T21:08:22.914Z,1.37
2018-09-21T21:10:51.159Z,1.50
2018-09-21T21:13:19.474Z,5.27
2018-09-21T21:15:47.666Z,4.43
2018-09-21T21:18:15.971Z,1.93
2018-09-21T21:20:44.270Z,4.80
2018-09-21T21:23:12.547Z,2.13
2018-09-21T21:25:40.866Z,3.27
2018-09-21T21:28:09.217Z,3.17
2018-09-21T21:30:37.540Z,3.00
2018-09-21T21:33:05.859Z,1.63
2018-09-21T21:35:34.204Z,4.83
2018-09-21T21:38:02.497Z,2.37
2018-09-21T21:40:30.830Z,2.23
2018-09-21T21:42:59.133Z,2.93
2018-09-21T21:45:27.412Z,1.87
2018-09-21T21:47:55.681Z,1.57
2018-09-21T21:50:23.944Z,2.73
2018-09-21T21:52:52.237Z,2.40
2018-09-21T21:55:20.507Z,2.50
2018-09-21T21:57:48.803Z,2.13
2018-09-21T22:00:17.125Z,2.27
2018-09-21T22:02:45.407Z,3.17
2018-09-21T22:05:13.686Z,3.00
2018-09-21T22:07:41.969Z,2.83
2018-09-21T22:10:10.274Z,1.37
2018-09-21T22:12:43.850Z,2.03
2018-09-21T22:15:14.729Z,1.60
2018-09-21T22:17:43.182Z,1.80
2018-09-21T22:20:11.586Z,4.17
2018-09-21T22:22:40.067Z,1.57
2018-09-21T22:25:08.906Z,3.57
2018-09-21T22:27:37.308Z,3.83
2018-09-21T22:30:05.703Z,2.73
2018-09-21T22:32:34.016Z,2.07
2018-09-21T22:35:02.294Z,3.40
2018-09-21T22:37:30.559Z,1.90
2018-09-21T22:39:58.858Z,2.73
2018-09-21T22:42:27.117Z,1.50
2018-09-21T22:44:55.475Z,1.93
2018-09-21T22:47:23.735Z,2.00
2018-09-21T22:49:51.985Z,1.77
2018-09-21T22:52:20.262Z,1.17
2018-09-21T22:54:48.524Z,2.43
2018-09-21T22:57:16.813Z,1.87
2018-09-21T22:59:45.069Z,2.93
2018-09-21T23:02:13.343Z,3.13
2018-09-21T23:04:41.606Z,1.77
2018-09-21T23:07:09.884Z,1.23
2018-09-21T23:09:38.165Z,2.57
2018-09-21T23:12:06.733Z,1.47
2018-09-21T23:14:34.997Z,1.63
2018-09-21T23:17:03.284Z,1.83
2018-09-21T23:19:31.561Z,1.23
2018-09-21T23:21:59.830Z,2.77
2018-09-21T23:24:28.118Z,0.90
2018-09-21T23:26:56.425Z,2.70
2018-09-21T23:29:24.706Z,1.60
2018-09-21T23:31:53.085Z,2.30
2018-09-21T23:34:21.293Z,3.37
2018-09-21T23:36:49.585Z,2.13
2018-09-21T23:39:17.885Z,2.83
2018-09-21T23:41:46.168Z,1.23
2018-09-21T23:44:14.442Z,1.23
2018-09-21T23:46:42.751Z,3.37
2018-09-21T23:49:11.054Z,2.20
2018-09-21T23:51:39.334Z,1.10
2018-09-21T23:54:07.637Z,1.67
2018-09-21T23:56:35.921Z,4.00
2018-09-21T23:59:04.203Z,3.43
